Dukedom, TN (38226)

23:02 CST le 01 Mars 2015 (GMT -0600)
APRSWXNET Dukedom TN US | Change Station
CLOSE
Current Station
Stations météorologiques personnelles
Location: Dukedom, TN
Altitude: 469 ft
Stations météo à proximité

Alt. 469 ft 36.49 °N, 88.72 °W | Updated 32 minutes ago

Couvert
Couvert
34 ° F
Paraît 34 ° F
N
2
Vent Variable Vent de Nord
Gusts 7.0 mph

Aujourd'hui
Haut(e) -- | Bas -- ° F
--% Risque de précip.
Hier
Haut(e) -- | Bas -- ° F
Precip. -- pouce
6:25 AM 5:49 PM
Lune gibbeuse croissante, 89% visible
Pression 30.42 pouce
Visibilité 9.0 Miles terrestres
Nuages Nuageux 1200 ft
Couvert 2900 ft
Refroidissement éolien 34 ° F
Point de rosée 33 ° F
Humidité 96%
Précipitations 0.29 pouce
Profondeur de la couche neigeuse Non disponible.
UV 0 sur 12
Pollen .80 sur 12
Qualité de l'air Non disponible.
Flu Activity Non disponible.
METAR KUCY 020455Z AUTO 35006KT 9SM BKN012 OVC029 M01/M01 A3042 RMK

More Conditions Fewer Conditions

Pression 30.42 pouce
Visibilité 9.0 Miles terrestres
Nuages Nuageux 1200 ft
Couvert 2900 ft
Refroidissement éolien 34 ° F
Point de rosée 33 ° F
Humidité 96%
Précipitations 0.29 pouce
Profondeur de la couche neigeuse Non disponible.
UV 0 sur 12
Pollen .80 sur 12
Qualité de l'air Non disponible.
Flu Activity Non disponible.
METAR KUCY 020455Z AUTO 35006KT 9SM BKN012 OVC029 M01/M01 A3042 RMK

More Conditions Fewer Conditions

10-Day Weather Forecast

Almanac

Astronomie

Mar. 01, 2015 Lever Coucher
Temps réel
Crépuscule civil
Crépuscule nautique
Crépuscule astronomique
Lune
Durée de lumière visible
Longueur du jour
Tomorrow will be .
, % of the Moon is Illuminated

Extrêmes aujourd'hui

State Highs State Lows

Community

WunderPhotos

Upload Photos

1,801,728 Photos téléchargées !

WunderBlogs® & News

Nearby

Qualité de l'air

  Qualité de l'air Indice de la qualité de l'air Polluant
Not available.

Épaisseur de neige

Station Depth Altitude

Activité sismique

Ville Distance Mag. Time & Date
Minimum magnitude displayed is 2.5.

Températures des eaux côtières

Lieu Température

Stations météo à proximité